Aviation Digital Data Service (ADDS)

Output produced by METARs form (2157 UTC 21 September 2018)
found at http://aviationweather.gov/metar/data/
 
KPHX 212151Z 23006KT 10SM FEW090 FEW230 37/13 A2987 RMK AO2 SLP095 T03720133
KPHX 212108Z 2121/2224 29008KT P6SM FEW080 
     FM220800 10005KT P6SM SKC